createdAt,value
2022-09-02T00:01:45.491Z,43.51
2022-09-02T00:04:16.968Z,43.42
2022-09-02T00:06:47.464Z,43.49
2022-09-02T00:09:20.645Z,43.52
2022-09-02T00:11:51.005Z,43.85
2022-09-02T00:14:30.502Z,43.76
2022-09-02T00:17:00.810Z,43.82
2022-09-02T00:19:31.582Z,43.82
2022-09-02T00:22:02.542Z,43.92
2022-09-02T00:24:31.892Z,43.97
2022-09-02T00:27:00.199Z,44.03
2022-09-02T00:29:30.122Z,44.24
2022-09-02T00:31:59.389Z,44.33
2022-09-02T00:34:27.845Z,44.24
2022-09-02T00:36:56.605Z,44.49
2022-09-02T00:39:26.187Z,44.51
2022-09-02T00:41:54.686Z,44.51
2022-09-02T00:44:23.641Z,44.53
2022-09-02T00:46:53.366Z,44.46
2022-09-02T00:49:25.613Z,44.38
2022-09-02T00:52:04.214Z,44.51
2022-09-02T00:54:36.355Z,44.43
2022-09-02T00:57:11.179Z,44.50
2022-09-02T00:59:49.710Z,45.07
2022-09-02T01:02:24.060Z,43.76
2022-09-02T01:04:56.973Z,44.73
2022-09-02T01:07:26.201Z,44.57
2022-09-02T01:09:56.465Z,44.59
2022-09-02T01:12:27.758Z,44.49
2022-09-02T01:14:56.411Z,44.52
2022-09-02T01:17:26.859Z,44.46
2022-09-02T01:20:00.646Z,44.56
2022-09-02T01:22:33.541Z,44.64
2022-09-02T01:25:07.417Z,44.66
2022-09-02T01:27:36.801Z,44.76
2022-09-02T01:30:08.934Z,44.79
2022-09-02T01:32:37.296Z,44.86
2022-09-02T01:35:06.740Z,44.90
2022-09-02T01:37:39.251Z,44.44
2022-09-02T01:40:10.239Z,44.77
2022-09-02T01:42:39.780Z,44.92
2022-09-02T01:45:10.198Z,44.49
2022-09-02T01:47:38.803Z,44.79
2022-09-02T01:50:08.607Z,44.76
2022-09-02T01:52:38.787Z,45.15
2022-09-02T01:57:37.148Z,45.17
2022-09-02T02:00:08.999Z,45.04
2022-09-02T02:02:37.690Z,45.09
2022-09-02T02:05:07.191Z,45.31
2022-09-02T02:07:37.656Z,45.09
2022-09-02T02:10:08.089Z,44.57
2022-09-02T02:12:36.359Z,45.50
2022-09-02T02:15:06.286Z,45.19
2022-09-02T02:17:34.969Z,45.36
2022-09-02T02:20:06.752Z,45.55
2022-09-02T02:22:35.465Z,46.20
2022-09-02T02:25:07.079Z,46.41
2022-09-02T02:27:35.740Z,46.19
2022-09-02T02:30:07.902Z,46.04
2022-09-02T02:32:36.661Z,46.73
2022-09-02T02:35:07.167Z,45.80
2022-09-02T02:37:35.516Z,46.19
2022-09-02T02:40:07.438Z,45.91
2022-09-02T02:42:36.433Z,45.89
2022-09-02T02:45:09.095Z,45.37
2022-09-02T02:47:46.168Z,45.79
2022-09-02T02:50:17.751Z,45.97
2022-09-02T02:52:46.864Z,46.11
2022-09-02T02:55:17.855Z,46.08
2022-09-02T02:57:46.495Z,45.79
2022-09-02T03:00:19.236Z,46.03
2022-09-02T03:02:47.876Z,46.80
2022-09-02T03:05:16.814Z,46.34
2022-09-02T03:07:45.166Z,47.14
2022-09-02T03:10:16.134Z,46.92
2022-09-02T03:12:47.839Z,46.96
2022-09-02T03:15:18.956Z,48.25
2022-09-02T03:17:48.891Z,47.74
2022-09-02T03:20:19.107Z,46.76
2022-09-02T03:22:51.413Z,47.07
2022-09-02T03:25:22.922Z,46.72
2022-09-02T03:27:53.394Z,45.73
2022-09-02T03:30:25.667Z,46.49
2022-09-02T03:32:54.449Z,46.63
2022-09-02T03:35:24.323Z,47.52
2022-09-02T03:37:53.680Z,47.31
2022-09-02T03:40:28.438Z,46.77
2022-09-02T03:43:00.207Z,47.03
2022-09-02T03:45:29.376Z,47.17
2022-09-02T03:47:58.776Z,47.16
2022-09-02T03:50:31.411Z,47.22
2022-09-02T03:53:01.319Z,47.13
2022-09-02T03:55:33.062Z,47.88
2022-09-02T03:58:03.440Z,47.23
2022-09-02T04:00:35.029Z,48.22
2022-09-02T04:03:03.777Z,47.64
2022-09-02T04:05:33.124Z,47.38
2022-09-02T04:08:01.604Z,47.71
2022-09-02T04:10:31.442Z,47.37
2022-09-02T04:12:59.743Z,47.34
2022-09-02T04:15:28.084Z,48.01
2022-09-02T04:17:57.121Z,47.84
2022-09-02T04:20:25.777Z,46.80
2022-09-02T04:22:54.068Z,47.32
2022-09-02T04:25:27.689Z,47.40
2022-09-02T04:27:57.567Z,47.21
2022-09-02T04:30:26.030Z,47.17
2022-09-02T04:32:54.769Z,47.29
2022-09-02T04:35:23.093Z,47.20
2022-09-02T04:37:52.167Z,47.37
2022-09-02T04:40:20.694Z,46.88
2022-09-02T04:42:49.009Z,47.66
2022-09-02T04:45:24.628Z,47.66
2022-09-02T04:47:56.119Z,47.96
2022-09-02T04:50:24.512Z,47.34
2022-09-02T04:52:52.796Z,47.40
2022-09-02T04:55:21.089Z,47.38
2022-09-02T04:57:49.540Z,47.20
2022-09-02T05:00:18.959Z,45.39
2022-09-02T05:02:48.737Z,47.40
2022-09-02T05:05:17.105Z,46.90
2022-09-02T05:07:45.393Z,47.05
2022-09-02T05:10:15.075Z,46.99
2022-09-02T05:12:43.849Z,47.06
2022-09-02T05:15:13.365Z,47.28
2022-09-02T05:17:41.975Z,47.19
2022-09-02T05:20:12.040Z,47.50
2022-09-02T05:22:41.175Z,47.62
2022-09-02T05:25:11.395Z,47.38
2022-09-02T05:27:40.323Z,47.79
2022-09-02T05:30:09.770Z,47.87
2022-09-02T05:32:38.212Z,48.01
2022-09-02T05:35:07.656Z,48.06
2022-09-02T05:37:37.679Z,48.46
2022-09-02T05:40:08.002Z,48.48
2022-09-02T05:42:37.463Z,48.08
2022-09-02T05:45:07.388Z,48.22
2022-09-02T05:47:36.611Z,48.77
2022-09-02T05:50:07.734Z,47.71
2022-09-02T05:52:37.709Z,47.47
2022-09-02T05:55:07.507Z,47.53
2022-09-02T05:57:35.815Z,47.57
2022-09-02T06:00:06.039Z,47.91
2022-09-02T06:02:34.413Z,46.27
2022-09-02T06:05:02.936Z,48.08
2022-09-02T06:07:31.384Z,47.96
2022-09-02T06:10:01.613Z,47.91
2022-09-02T06:12:31.183Z,47.93
2022-09-02T06:15:00.073Z,47.41
2022-09-02T06:17:28.420Z,47.46
2022-09-02T06:19:56.728Z,48.49
2022-09-02T06:22:25.148Z,49.33
2022-09-02T06:24:53.521Z,50.96
2022-09-02T06:27:23.238Z,56.90
2022-09-02T06:29:51.795Z,55.04
2022-09-02T06:32:20.433Z,53.56
2022-09-02T06:34:48.905Z,54.33
2022-09-02T06:37:17.256Z,54.83
2022-09-02T06:39:46.730Z,52.21
2022-09-02T06:42:15.087Z,51.71
2022-09-02T06:44:44.774Z,50.99
2022-09-02T06:47:13.101Z,49.50
2022-09-02T06:49:41.604Z,52.50
2022-09-02T06:52:09.988Z,50.98
2022-09-02T06:54:40.120Z,51.29
2022-09-02T06:57:08.411Z,54.42
2022-09-02T06:59:36.729Z,53.54
2022-09-02T07:02:06.648Z,47.93
2022-09-02T07:04:54.366Z,47.37
2022-09-02T07:07:25.450Z,43.87
2022-09-02T07:09:55.615Z,41.08
2022-09-02T07:12:27.070Z,41.72
2022-09-02T07:14:56.066Z,41.62
2022-09-02T07:17:26.048Z,43.44
2022-09-02T07:19:56.008Z,45.24
2022-09-02T07:22:24.603Z,42.78
2022-09-02T07:24:53.248Z,46.77
2022-09-02T07:27:22.116Z,48.04
2022-09-02T07:29:51.065Z,46.44
2022-09-02T07:32:21.534Z,48.86
2022-09-02T07:34:51.500Z,52.33
2022-09-02T07:37:20.145Z,52.39
2022-09-02T07:39:50.094Z,54.35
2022-09-02T07:42:19.564Z,53.28
2022-09-02T07:44:48.213Z,48.26
2022-09-02T07:47:16.838Z,48.45
2022-09-02T07:52:35.435Z,44.65
2022-09-02T07:55:04.143Z,42.67
2022-09-02T07:57:32.992Z,42.04
2022-09-02T08:00:01.828Z,45.89
2022-09-02T08:02:30.467Z,44.31
2022-09-02T08:04:59.118Z,45.81
2022-09-02T08:07:27.708Z,46.13
2022-09-02T08:10:00.801Z,44.11
2022-09-02T08:12:29.768Z,44.30
2022-09-02T08:14:59.389Z,43.10
2022-09-02T08:17:27.961Z,41.45
2022-09-02T08:19:56.891Z,40.51
2022-09-02T08:22:26.057Z,40.64
2022-09-02T08:24:56.077Z,41.44
2022-09-02T08:27:26.570Z,40.14
2022-09-02T08:29:55.265Z,41.27
2022-09-02T08:32:23.846Z,41.30
2022-09-02T08:34:52.475Z,40.66
2022-09-02T08:37:21.071Z,40.19
2022-09-02T08:39:49.838Z,40.04
2022-09-02T08:42:24.528Z,40.40
2022-09-02T08:44:56.019Z,40.12
2022-09-02T08:47:31.551Z,39.10
2022-09-02T08:50:04.920Z,38.97
2022-09-02T08:52:40.577Z,40.26
2022-09-02T08:55:11.567Z,42.06
2022-09-02T08:57:49.796Z,43.68
2022-09-02T09:00:18.864Z,41.87
2022-09-02T09:02:58.536Z,41.29
2022-09-02T09:05:40.074Z,41.29
2022-09-02T09:08:21.614Z,38.79
2022-09-02T09:11:00.106Z,39.17
2022-09-02T09:13:47.264Z,38.43
2022-09-02T09:16:31.992Z,40.01
2022-09-02T09:19:09.057Z,36.96
2022-09-02T09:21:37.797Z,38.11
2022-09-02T09:24:15.249Z,38.39
2022-09-02T09:26:47.296Z,38.51
2022-09-02T09:29:17.231Z,39.05
2022-09-02T09:31:49.976Z,37.32
2022-09-02T09:34:18.587Z,37.07
2022-09-02T09:36:53.795Z,37.07
2022-09-02T09:39:25.853Z,37.92
2022-09-02T09:41:56.160Z,36.19
2022-09-02T09:44:45.679Z,36.54
2022-09-02T09:47:20.527Z,38.19
2022-09-02T09:49:51.104Z,36.77
2022-09-02T09:52:27.555Z,33.69
2022-09-02T09:55:20.991Z,37.63
2022-09-02T09:57:54.774Z,35.70
2022-09-02T10:00:32.130Z,35.71
2022-09-02T10:03:02.584Z,38.15
2022-09-02T10:05:35.247Z,34.66
2022-09-02T10:08:10.063Z,32.54
2022-09-02T10:10:58.384Z,36.68
2022-09-02T10:13:29.895Z,37.07
2022-09-02T10:16:20.573Z,33.91
2022-09-02T10:18:57.133Z,33.61
2022-09-02T10:21:45.100Z,34.96
2022-09-02T10:24:31.875Z,33.14
2022-09-02T10:27:01.222Z,30.00
2022-09-02T10:29:49.637Z,31.01
2022-09-02T10:32:30.950Z,30.76
2022-09-02T10:35:11.329Z,33.79
2022-09-02T10:37:52.463Z,34.69
2022-09-02T10:40:27.397Z,33.37
2022-09-02T10:43:05.603Z,32.30
2022-09-02T10:45:39.218Z,31.71
2022-09-02T10:48:30.180Z,32.71
2022-09-02T10:51:05.859Z,33.46
2022-09-02T10:53:51.975Z,33.49
2022-09-02T10:56:24.329Z,34.82
2022-09-02T11:01:36.884Z,32.64
2022-09-02T11:04:15.053Z,31.87
2022-09-02T11:07:02.066Z,33.84
2022-09-02T11:09:37.520Z,32.04
2022-09-02T11:12:12.105Z,31.40
2022-09-02T11:14:54.527Z,35.92
2022-09-02T11:17:32.116Z,30.42
2022-09-02T11:20:10.586Z,30.88
2022-09-02T11:22:49.684Z,33.77
2022-09-02T11:25:26.505Z,29.98
2022-09-02T11:28:01.476Z,33.42
2022-09-02T11:30:41.388Z,30.25
2022-09-02T11:33:19.161Z,34.40
2022-09-02T11:35:50.946Z,30.18
2022-09-02T11:38:32.182Z,33.89
2022-09-02T11:41:36.716Z,31.13
2022-09-02T11:44:24.293Z,30.51
2022-09-02T11:47:09.434Z,30.85
2022-09-02T11:49:58.495Z,33.50
2022-09-02T11:52:40.839Z,30.62
2022-09-02T11:55:16.752Z,31.00
2022-09-02T11:57:54.032Z,31.23
2022-09-02T12:00:32.047Z,30.62
2022-09-02T12:03:38.007Z,30.08
2022-09-02T12:06:11.065Z,29.12
2022-09-02T12:09:08.471Z,29.89
2022-09-02T12:11:43.307Z,31.36
2022-09-02T12:14:34.101Z,28.59
2022-09-02T12:17:04.283Z,28.77
2022-09-02T12:19:44.392Z,30.03
2022-09-02T12:22:38.566Z,28.97
2022-09-02T12:25:43.183Z,27.97
2022-09-02T12:28:25.458Z,29.63
2022-09-02T12:31:15.603Z,29.96
2022-09-02T12:33:46.125Z,30.43
2022-09-02T12:36:50.313Z,34.44
2022-09-02T12:39:53.204Z,32.81
2022-09-02T12:42:29.119Z,32.23
2022-09-02T12:45:07.879Z,31.94
2022-09-02T12:47:50.806Z,33.63
2022-09-02T12:50:26.281Z,31.36
2022-09-02T12:53:12.435Z,34.13
2022-09-02T12:55:43.803Z,30.76
2022-09-02T12:58:20.999Z,31.75
2022-09-02T13:01:00.975Z,32.57
2022-09-02T13:03:51.501Z,31.61
2022-09-02T13:06:28.120Z,31.02
2022-09-02T13:09:21.095Z,30.63
2022-09-02T13:12:25.167Z,31.33
2022-09-02T13:15:04.163Z,29.61
2022-09-02T13:17:53.050Z,30.35
2022-09-02T13:20:56.122Z,29.63
2022-09-02T13:23:58.244Z,30.03
2022-09-02T13:26:51.624Z,29.64
2022-09-02T13:30:09.098Z,31.30
2022-09-02T13:32:39.522Z,30.05
2022-09-02T13:35:18.334Z,30.53
2022-09-02T13:38:00.353Z,29.30
2022-09-02T13:40:33.568Z,30.69
2022-09-02T13:43:04.098Z,30.63
2022-09-02T13:45:36.249Z,31.09
2022-09-02T13:48:12.008Z,28.88
2022-09-02T13:50:45.986Z,28.37
2022-09-02T13:56:19.210Z,29.24
2022-09-02T13:58:53.132Z,29.28
2022-09-02T14:01:25.601Z,29.75
2022-09-02T14:03:57.950Z,30.51
2022-09-02T14:06:30.826Z,27.72
2022-09-02T14:09:02.708Z,28.18
2022-09-02T14:11:42.859Z,30.82
2022-09-02T14:14:16.181Z,30.94
2022-09-02T14:16:44.824Z,28.23
2022-09-02T14:19:26.434Z,28.84
2022-09-02T14:21:57.386Z,28.42
2022-09-02T14:24:28.696Z,29.02
2022-09-02T14:26:58.969Z,28.93
2022-09-02T14:29:31.228Z,28.17
2022-09-02T14:32:13.782Z,29.26
2022-09-02T14:34:45.144Z,28.31
2022-09-02T14:37:23.898Z,29.14
2022-09-02T14:40:09.432Z,29.09
2022-09-02T14:42:52.644Z,28.20
2022-09-02T14:45:28.833Z,30.29
2022-09-02T14:47:59.596Z,29.04
2022-09-02T14:50:32.701Z,28.95
2022-09-02T14:53:05.862Z,28.45
2022-09-02T14:55:54.546Z,31.61
2022-09-02T14:58:27.139Z,27.90
2022-09-02T15:00:58.058Z,28.44
2022-09-02T15:03:27.176Z,27.90
2022-09-02T15:05:57.580Z,27.26
2022-09-02T15:08:26.171Z,27.39
2022-09-02T15:10:55.586Z,27.84
2022-09-02T15:13:30.517Z,28.72
2022-09-02T15:15:59.564Z,28.19
2022-09-02T15:18:28.270Z,29.86
2022-09-02T15:20:58.484Z,29.14
2022-09-02T15:23:27.289Z,28.92
2022-09-02T15:25:57.285Z,29.32
2022-09-02T15:28:25.888Z,29.22
2022-09-02T15:30:59.863Z,28.45
2022-09-02T15:33:29.039Z,29.07
2022-09-02T15:36:07.123Z,28.89
2022-09-02T15:38:35.923Z,28.98
2022-09-02T15:41:19.481Z,30.35
2022-09-02T15:43:48.985Z,29.22
2022-09-02T15:46:26.840Z,32.00
2022-09-02T15:49:00.347Z,28.73
2022-09-02T15:51:32.822Z,28.53
2022-09-02T15:54:02.865Z,29.34
2022-09-02T15:56:33.736Z,30.95
2022-09-02T15:59:04.228Z,29.41
2022-09-02T16:01:34.680Z,32.56
2022-09-02T16:04:04.153Z,29.33
2022-09-02T16:06:36.081Z,28.29
2022-09-02T16:09:04.929Z,29.16
2022-09-02T16:11:33.635Z,29.33
2022-09-02T16:14:02.191Z,29.80
2022-09-02T16:16:32.540Z,29.12
2022-09-02T16:19:01.136Z,29.69
2022-09-02T16:21:30.201Z,30.12
2022-09-02T16:24:00.136Z,29.93
2022-09-02T16:26:30.739Z,29.42
2022-09-02T16:29:00.935Z,30.25
2022-09-02T16:31:31.584Z,30.63
2022-09-02T16:34:02.037Z,30.32
2022-09-02T16:36:33.848Z,30.90
2022-09-02T16:39:05.023Z,29.92
2022-09-02T16:41:35.557Z,29.99
2022-09-02T16:44:06.021Z,32.93
2022-09-02T16:46:36.267Z,32.27
2022-09-02T16:49:05.924Z,30.47
2022-09-02T16:51:34.584Z,30.89
2022-09-02T16:54:05.948Z,30.80
2022-09-02T16:56:36.642Z,30.93
2022-09-02T16:59:07.120Z,33.15
2022-09-02T17:01:36.963Z,31.68
2022-09-02T17:04:08.699Z,31.63
2022-09-02T17:06:41.981Z,31.04
2022-09-02T17:09:12.159Z,31.48
2022-09-02T17:11:42.634Z,31.84
2022-09-02T17:14:12.928Z,32.72
2022-09-02T17:16:46.998Z,32.30
2022-09-02T17:19:21.321Z,32.21
2022-09-02T17:21:51.878Z,31.49
2022-09-02T17:24:24.185Z,32.43
2022-09-02T17:26:56.252Z,31.94
2022-09-02T17:32:16.583Z,35.36
2022-09-02T17:34:45.189Z,41.32
2022-09-02T17:37:13.877Z,39.39
2022-09-02T17:39:44.166Z,37.41
2022-09-02T17:42:14.070Z,36.54
2022-09-02T17:44:43.080Z,35.67
2022-09-02T17:47:14.662Z,36.33
2022-09-02T17:49:44.519Z,39.77
2022-09-02T17:52:15.046Z,36.13
2022-09-02T17:54:45.270Z,36.03
2022-09-02T17:57:32.354Z,38.78
2022-09-02T18:00:09.460Z,38.03
2022-09-02T18:03:10.844Z,40.27
2022-09-02T18:05:54.925Z,37.17
2022-09-02T18:08:34.888Z,37.50
2022-09-02T18:11:07.839Z,38.11
2022-09-02T18:13:47.591Z,36.87
2022-09-02T18:16:30.274Z,36.52
2022-09-02T18:19:08.916Z,37.43
2022-09-02T18:21:47.881Z,42.29
2022-09-02T18:24:26.348Z,36.82
2022-09-02T18:27:03.423Z,36.71
2022-09-02T18:29:47.622Z,37.07
2022-09-02T18:32:24.257Z,37.37
2022-09-02T18:35:03.353Z,42.42
2022-09-02T18:37:49.559Z,41.55
2022-09-02T18:40:28.556Z,42.12
2022-09-02T18:43:09.089Z,37.72
2022-09-02T18:45:44.947Z,41.92
2022-09-02T18:48:15.788Z,43.69
2022-09-02T18:50:51.487Z,43.18
2022-09-02T18:53:23.904Z,37.37
2022-09-02T18:55:54.186Z,41.83
2022-09-02T18:58:35.091Z,38.37
2022-09-02T19:01:07.196Z,42.21
2022-09-02T19:03:37.394Z,37.93
2022-09-02T19:06:11.173Z,37.95
2022-09-02T19:08:39.537Z,38.33
2022-09-02T19:11:12.163Z,39.53
2022-09-02T19:13:48.307Z,38.21
2022-09-02T19:16:19.320Z,39.93
2022-09-02T19:18:48.292Z,38.65
2022-09-02T19:21:21.237Z,39.20
2022-09-02T19:23:50.459Z,40.41
2022-09-02T19:26:19.707Z,38.12
2022-09-02T19:28:50.331Z,39.02
2022-09-02T19:31:22.911Z,38.75
2022-09-02T19:33:54.938Z,42.80
2022-09-02T19:36:26.403Z,37.26
2022-09-02T19:39:00.246Z,36.93
2022-09-02T19:41:28.909Z,39.46
2022-09-02T19:44:00.089Z,42.14
2022-09-02T19:47:06.960Z,43.57
2022-09-02T19:49:17.807Z,40.35
2022-09-02T19:51:47.192Z,38.08
2022-09-02T19:54:17.897Z,38.56
2022-09-02T19:56:46.818Z,43.04
2022-09-02T19:59:17.163Z,40.17
2022-09-02T20:01:45.834Z,41.09
2022-09-02T20:04:15.922Z,39.76
2022-09-02T20:06:44.778Z,40.41
2022-09-02T20:09:13.340Z,43.06
2022-09-02T20:11:42.213Z,41.31
2022-09-02T20:14:10.779Z,42.72
2022-09-02T20:16:40.789Z,37.07
2022-09-02T20:19:11.865Z,40.43
2022-09-02T20:21:45.049Z,41.87
2022-09-02T20:24:21.892Z,37.72
2022-09-02T20:26:59.601Z,38.63
2022-09-02T20:29:47.242Z,42.49
2022-09-02T20:32:31.583Z,38.25
2022-09-02T20:35:11.503Z,38.47
2022-09-02T20:37:51.952Z,37.71
2022-09-02T20:40:45.975Z,39.82
2022-09-02T20:43:37.246Z,40.37
2022-09-02T20:46:20.734Z,39.70
2022-09-02T20:49:02.291Z,41.51
2022-09-02T20:51:39.025Z,40.59
2022-09-02T20:54:24.506Z,43.73
2022-09-02T20:57:06.124Z,41.99
2022-09-02T20:59:44.716Z,38.45
2022-09-02T21:02:16.089Z,39.73
2022-09-02T21:04:51.421Z,43.52
2022-09-02T21:07:25.401Z,43.49
2022-09-02T21:10:06.426Z,43.39
2022-09-02T21:12:41.274Z,40.13
2022-09-02T21:15:22.540Z,43.72
2022-09-02T21:17:55.125Z,41.10
2022-09-02T21:20:29.805Z,41.25
2022-09-02T21:23:02.195Z,42.42
2022-09-02T21:25:36.647Z,39.05
2022-09-02T21:28:10.171Z,39.37
2022-09-02T21:30:42.121Z,44.10
2022-09-02T21:33:14.309Z,41.24
2022-09-02T21:35:47.986Z,41.62
2022-09-02T21:38:21.176Z,44.47
2022-09-02T21:41:07.428Z,39.22
2022-09-02T21:43:48.888Z,43.02
2022-09-02T21:46:28.579Z,45.05
2022-09-02T21:49:04.825Z,41.64
2022-09-02T21:51:38.015Z,43.85
2022-09-02T21:54:25.782Z,43.36
2022-09-02T21:57:15.189Z,40.43
2022-09-02T22:00:00.375Z,40.47
2022-09-02T22:02:38.826Z,41.82
2022-09-02T22:05:18.085Z,45.30
2022-09-02T22:07:55.537Z,41.89
2022-09-02T22:10:33.045Z,41.39
2022-09-02T22:13:03.255Z,42.75
2022-09-02T22:15:42.786Z,44.60
2022-09-02T22:18:17.820Z,44.61
2022-09-02T22:20:46.659Z,43.83
2022-09-02T22:23:25.754Z,43.21
2022-09-02T22:25:56.107Z,41.13
2022-09-02T22:28:32.449Z,42.62
2022-09-02T22:31:05.422Z,44.75
2022-09-02T22:33:43.646Z,43.82
2022-09-02T22:36:29.399Z,44.86
2022-09-02T22:39:01.281Z,42.91
2022-09-02T22:41:37.067Z,43.47
2022-09-02T22:44:09.858Z,47.22
2022-09-02T22:47:12.440Z,43.20
2022-09-02T22:50:05.251Z,42.24
2022-09-02T22:52:50.188Z,49.25
2022-09-02T22:55:47.034Z,45.88
2022-09-02T22:58:40.151Z,45.63
2022-09-02T23:01:17.938Z,41.37
2022-09-02T23:03:58.179Z,42.49
2022-09-02T23:06:29.562Z,45.24
2022-09-02T23:09:09.412Z,42.40
2022-09-02T23:11:48.911Z,45.43
2022-09-02T23:14:28.966Z,43.13
2022-09-02T23:17:20.580Z,44.53
2022-09-02T23:20:04.133Z,43.48
2022-09-02T23:22:53.158Z,43.11
2022-09-02T23:25:34.758Z,45.55
2022-09-02T23:28:16.910Z,44.08
2022-09-02T23:31:03.408Z,45.92
2022-09-02T23:33:51.302Z,47.92
2022-09-02T23:36:26.114Z,45.19
2022-09-02T23:39:38.016Z,44.49
2022-09-02T23:42:07.497Z,46.16
2022-09-02T23:44:37.443Z,45.90
2022-09-02T23:47:21.142Z,45.44
2022-09-02T23:49:57.816Z,43.67
2022-09-02T23:52:36.299Z,45.91
2022-09-02T23:55:13.375Z,42.78
2022-09-02T23:58:06.861Z,46.54
